Time;durP1;ratioP1;P1;durP2;ratioP2;P2;SDS_P1;SDS_P2;PMS_P1;PMS_P2;Temp;Humidity;BMP_temperature;BMP_pressure;BME280_temperature;BME280_humidity;BME280_pressure;Samples;Min_cycle;Max_cycle;Signal;HPM_P1;HPM_P2
2024/01/27 00:00:48;;;;;;;20.25;3.85;;;;;;;5.56;79.33;101399.28;4971826;28;20051;-78
2024/01/27 00:03:14;;;;;;;20.88;4.30;;;;;;;5.54;79.41;101408.00;4954234;28;20478;-77
2024/01/27 00:05:41;;;;;;;20.63;4.68;;;;;;;5.53;79.74;101411.50;4954487;28;20061;-78
2024/01/27 00:08:08;;;;;;;28.17;4.43;;;;;;;5.51;79.52;101405.41;4954536;28;20054;-78
2024/01/27 00:10:35;;;;;;;18.67;3.95;;;;;;;5.49;79.64;101405.44;4971846;28;20113;-78
2024/01/27 00:13:01;;;;;;;25.50;5.25;;;;;;;5.46;79.76;101406.31;4971593;28;20058;-76
2024/01/27 00:15:28;;;;;;;22.90;4.25;;;;;;;5.44;79.64;101412.44;4971814;28;20657;-78
2024/01/27 00:17:54;;;;;;;16.98;3.90;;;;;;;5.43;79.83;101426.38;4972433;28;20467;-76
2024/01/27 00:20:21;;;;;;;19.27;4.05;;;;;;;5.41;79.87;101417.69;4958276;28;20054;-77
2024/01/27 00:22:48;;;;;;;22.30;4.28;;;;;;;5.39;79.74;101415.13;4958092;28;20082;-77
2024/01/27 00:25:14;;;;;;;21.48;4.38;;;;;;;5.39;79.95;101419.47;4958213;28;20047;-76
2024/01/27 00:27:41;;;;;;;20.00;4.13;;;;;;;5.38;80.08;101421.19;4975512;28;20054;-77
2024/01/27 00:30:08;;;;;;;21.45;3.97;;;;;;;5.38;80.14;101418.59;4958377;28;20139;-77
2024/01/27 00:32:35;;;;;;;20.23;4.53;;;;;;;5.36;79.99;101428.19;4975399;28;20054;-77
2024/01/27 00:35:02;;;;;;;14.38;4.00;;;;;;;5.37;79.99;101432.53;4975155;28;20047;-77
2024/01/27 00:37:29;;;;;;;17.17;3.75;;;;;;;5.37;80.09;101431.66;4958184;28;20122;-76
2024/01/27 00:39:56;;;;;;;28.25;4.22;;;;;;;5.36;80.52;101433.41;4957701;28;20226;-77
2024/01/27 00:42:23;;;;;;;22.17;3.67;;;;;;;5.35;80.31;101437.75;4975078;28;20078;-76
2024/01/27 00:44:51;;;;;;;20.42;3.90;;;;;;;5.35;80.01;101445.59;4974690;28;20047;-77
2024/01/27 00:47:18;;;;;;;25.45;3.75;;;;;;;5.35;80.20;101448.19;4975007;28;20045;-77
2024/01/27 00:49:44;;;;;;;22.40;4.22;;;;;;;5.33;80.24;101454.31;4974805;28;20539;-76
2024/01/27 00:52:11;;;;;;;24.42;4.47;;;;;;;5.33;80.15;101456.94;4974936;28;20070;-77
2024/01/27 00:54:38;;;;;;;20.02;4.28;;;;;;;5.32;79.98;101457.81;4974630;28;20460;-77
2024/01/27 00:57:04;;;;;;;21.17;4.45;;;;;;;5.31;80.23;101454.31;4956983;28;20101;-77
2024/01/27 00:59:31;;;;;;;24.65;5.03;;;;;;;5.30;80.23;101465.66;4974627;28;20613;-78
2024/01/27 01:01:58;;;;;;;21.45;4.55;;;;;;;5.30;80.48;101459.56;4974566;28;20135;-77
2024/01/27 01:04:24;;;;;;;17.88;3.95;;;;;;;5.29;80.25;101463.94;4974419;28;20530;-77
2024/01/27 01:06:51;;;;;;;23.80;3.88;;;;;;;5.28;80.06;101472.66;4974676;28;20046;-77
2024/01/27 01:09:18;;;;;;;23.05;4.68;;;;;;;5.26;79.93;101476.13;4957383;28;20142;-76
2024/01/27 01:11:45;;;;;;;19.63;3.72;;;;;;;5.25;80.23;101475.28;4974605;28;20499;-76
2024/01/27 01:14:11;;;;;;;24.27;4.70;;;;;;;5.25;80.21;101472.66;4974482;28;20049;-77
2024/01/27 01:16:38;;;;;;;15.68;3.85;;;;;;;5.24;80.34;101473.53;4974605;28;20455;-76
2024/01/27 01:19:04;;;;;;;24.60;4.43;;;;;;;5.24;80.04;101477.88;4974125;28;20078;-77
2024/01/27 01:21:31;;;;;;;27.27;4.05;;;;;;;5.25;80.12;101477.00;4974288;28;20487;-76
2024/01/27 01:23:58;;;;;;;21.17;4.10;;;;;;;5.22;80.06;101475.28;4974465;28;20063;-78
2024/01/27 01:26:25;;;;;;;22.23;4.35;;;;;;;5.20;80.24;101470.06;4974315;28;20195;-77
2024/01/27 01:28:51;;;;;;;22.38;4.60;;;;;;;5.21;80.32;101473.56;4956427;28;20050;-77
2024/01/27 01:31:18;;;;;;;18.45;3.78;;;;;;;5.20;80.35;101479.66;4974038;28;20054;-77
2024/01/27 01:33:45;;;;;;;22.40;4.30;;;;;;;5.21;80.12;101484.00;4973882;28;20094;-76
2024/01/27 01:36:11;;;;;;;16.02;3.75;;;;;;;5.19;80.04;101484.00;4957224;28;20049;-77
2024/01/27 01:38:38;;;;;;;23.58;4.80;;;;;;;5.21;80.34;101486.63;4956786;28;20049;-77
2024/01/27 01:41:05;;;;;;;15.15;3.95;;;;;;;5.20;80.38;101474.44;4974091;28;20127;-75
2024/01/27 01:43:31;;;;;;;15.60;3.90;;;;;;;5.20;80.36;101484.88;4973992;28;20042;-76
2024/01/27 01:45:58;;;;;;;17.90;3.38;;;;;;;5.20;80.41;101477.06;4973981;28;20188;-77
2024/01/27 01:48:25;;;;;;;14.75;3.35;;;;;;;5.21;80.44;101484.84;4956585;28;20051;-76
2024/01/27 01:50:53;;;;;;;19.30;3.88;;;;;;;5.20;80.32;101496.19;4974074;28;20046;-76
2024/01/27 01:53:20;;;;;;;28.33;4.75;;;;;;;5.20;80.25;101488.34;4973889;28;20050;-77
2024/01/27 01:55:46;;;;;;;18.90;3.63;;;;;;;5.20;80.01;101490.09;4974116;28;20046;-77
2024/01/27 01:58:13;;;;;;;23.75;4.50;;;;;;;5.20;80.42;101495.31;4974134;28;20058;-77
2024/01/27 02:00:39;;;;;;;15.98;3.88;;;;;;;5.20;80.32;101482.28;4973372;28;20369;-79
2024/01/27 02:03:11;;;;;;;18.77;3.63;;;;;;;5.19;80.14;101477.91;4973329;28;20043;-76
2024/01/27 02:05:38;;;;;;;22.15;4.40;;;;;;;5.21;80.51;101478.78;4973640;28;20391;-76
2024/01/27 02:08:05;;;;;;;15.68;3.92;;;;;;;5.21;80.26;101477.00;4973901;28;20050;-79
2024/01/27 02:10:36;;;;;;;26.25;4.65;;;;;;;5.22;80.25;101476.16;4973272;28;20199;-77
2024/01/27 02:13:23;;;;;;;19.63;4.05;;;;;;;5.18;78.84;101477.06;4956270;28;20066;-76
2024/01/27 02:15:50;;;;;;;21.83;4.35;;;;;;;5.21;80.11;101477.00;4973696;28;20099;-79
2024/01/27 02:18:17;;;;;;;17.35;4.65;;;;;;;5.20;80.02;101480.50;4973477;28;20484;-76
2024/01/27 02:20:44;;;;;;;19.40;4.68;;;;;;;5.19;80.15;101483.13;4973266;28;20042;-77
2024/01/27 02:23:11;;;;;;;13.98;3.92;;;;;;;5.19;79.87;101502.28;4973221;28;20051;-78
2024/01/27 02:25:37;;;;;;;27.33;4.15;;;;;;;5.19;80.02;101497.06;4973448;28;20138;-76
2024/01/27 02:28:04;;;;;;;21.05;4.13;;;;;;;5.17;80.07;101496.22;4956132;28;20074;-76
2024/01/27 02:30:31;;;;;;;17.20;4.80;;;;;;;5.17;80.11;101487.50;4956004;28;20046;-78
2024/01/27 02:32:58;;;;;;;20.98;4.25;;;;;;;5.17;79.97;101500.56;4972800;28;20174;-78
2024/01/27 02:35:25;;;;;;;16.40;4.57;;;;;;;5.16;80.00;101501.44;4973080;28;20051;-78
2024/01/27 02:37:52;;;;;;;15.32;4.15;;;;;;;5.15;80.00;101495.34;4973238;28;20143;-77
2024/01/27 02:40:18;;;;;;;18.98;4.05;;;;;;;5.15;80.21;101497.06;4972559;28;20094;-76
2024/01/27 02:42:45;;;;;;;21.20;4.10;;;;;;;5.13;80.00;101489.28;4972942;28;20050;-77
2024/01/27 02:45:11;;;;;;;16.42;4.10;;;;;;;5.13;80.12;101484.06;4972881;28;20054;-78
2024/01/27 02:47:39;;;;;;;13.95;3.60;;;;;;;5.13;79.89;101489.28;4973051;28;20042;-77
2024/01/27 02:50:06;;;;;;;17.65;4.20;;;;;;;5.12;80.23;101484.91;4955799;28;20042;-77
2024/01/27 02:52:33;;;;;;;13.52;4.13;;;;;;;5.12;80.25;101477.06;4972516;28;20043;-78
2024/01/27 02:54:59;;;;;;;18.13;3.88;;;;;;;5.11;80.20;101483.19;4972560;28;20081;-77
2024/01/27 02:57:27;;;;;;;16.73;4.20;;;;;;;5.11;79.96;101487.53;4973030;28;20078;-78
2024/01/27 02:59:54;;;;;;;12.73;4.68;;;;;;;5.13;80.22;101483.19;4973105;28;20117;-78
2024/01/27 03:02:20;;;;;;;21.13;5.25;;;;;;;5.11;80.04;101484.91;4972321;28;20050;-78
2024/01/27 03:04:47;;;;;;;21.92;4.40;;;;;;;5.11;80.54;101487.53;4955310;28;20046;-77
2024/01/27 03:07:13;;;;;;;17.70;4.10;;;;;;;5.11;80.39;101479.69;4972628;28;20125;-77
2024/01/27 03:09:40;;;;;;;17.35;3.85;;;;;;;5.11;80.39;101487.53;4972596;28;20047;-77
2024/01/27 03:12:07;;;;;;;16.45;4.10;;;;;;;5.11;80.47;101490.13;4972330;28;20069;-77
2024/01/27 03:14:34;;;;;;;18.90;4.63;;;;;;;5.09;80.48;101496.25;4972208;28;20472;-77
2024/01/27 03:17:01;;;;;;;24.17;4.95;;;;;;;5.10;80.01;101494.50;4972576;28;20632;-76
2024/01/27 03:19:27;;;;;;;18.63;4.88;;;;;;;5.09;80.01;101491.03;4955321;28;20108;-79
2024/01/27 03:21:54;;;;;;;23.70;4.45;;;;;;;5.10;80.13;101499.72;4972147;28;20050;-77
2024/01/27 03:24:20;;;;;;;18.83;4.38;;;;;;;5.09;80.43;101492.78;4954942;28;20043;-77
2024/01/27 03:26:47;;;;;;;17.92;4.18;;;;;;;5.08;80.40;101502.34;4972557;28;20165;-77
2024/01/27 03:29:14;;;;;;;12.43;3.97;;;;;;;5.08;80.14;101498.84;4972556;28;20137;-78
2024/01/27 03:31:41;;;;;;;13.70;3.65;;;;;;;5.08;80.49;101488.41;4972296;28;20141;-76
2024/01/27 03:34:07;;;;;;;25.05;4.95;;;;;;;5.08;80.32;101502.34;4954399;28;20506;-78
2024/01/27 03:36:34;;;;;;;18.40;4.85;;;;;;;5.08;80.46;101491.91;4972240;28;20407;-78
2024/01/27 03:39:01;;;;;;;16.02;4.20;;;;;;;5.09;80.23;101487.56;4954995;28;20047;-77
2024/01/27 03:41:27;;;;;;;17.30;4.80;;;;;;;5.09;80.38;101495.41;4972244;28;20053;-77
2024/01/27 03:43:54;;;;;;;12.02;3.83;;;;;;;5.08;80.32;101489.28;4954509;28;20081;-76
2024/01/27 03:46:20;;;;;;;15.10;4.43;;;;;;;5.09;80.52;101490.16;4972104;28;20058;-78
2024/01/27 03:48:47;;;;;;;22.15;4.30;;;;;;;5.08;80.16;101491.91;4972272;28;20082;-76
2024/01/27 03:51:14;;;;;;;32.03;5.38;;;;;;;5.08;80.25;101496.25;4971944;28;20051;-76
2024/01/27 03:53:40;;;;;;;24.67;5.13;;;;;;;5.08;80.47;101485.81;4953784;28;20042;-79
2024/01/27 03:56:11;;;;;;;24.33;4.72;;;;;;;5.07;79.61;101491.91;4954906;28;20050;-77
2024/01/27 03:58:38;;;;;;;21.40;5.20;;;;;;;5.07;80.44;101491.91;4971928;28;20484;-77
2024/01/27 04:01:05;;;;;;;16.65;4.28;;;;;;;5.07;80.45;101497.13;4971933;28;20407;-77
2024/01/27 04:03:32;;;;;;;19.10;5.03;;;;;;;5.06;80.06;101493.66;4971331;28;20046;-78
2024/01/27 04:06:01;;;;;;;21.70;4.70;;;;;;;5.06;80.33;101493.66;4954487;28;20082;-77
2024/01/27 04:08:30;;;;;;;24.67;4.45;;;;;;;5.05;80.39;101494.53;4972244;28;20047;-77
2024/01/27 04:10:56;;;;;;;22.42;5.22;;;;;;;5.06;80.17;101496.28;4972076;28;20121;-78
2024/01/27 04:13:23;;;;;;;14.63;5.20;;;;;;;5.06;80.31;101501.50;4954351;28;20055;-77
2024/01/27 04:15:51;;;;;;;16.67;4.88;;;;;;;5.04;80.35;101505.84;4971657;28;20050;-77
2024/01/27 04:18:17;;;;;;;16.60;4.47;;;;;;;5.04;80.64;101508.47;4971750;28;20544;-78
2024/01/27 04:20:45;;;;;;;17.52;5.00;;;;;;;5.04;80.30;101513.69;4954935;28;20117;-77
2024/01/27 04:23:12;;;;;;;23.75;5.82;;;;;;;5.04;80.16;101518.91;4971523;28;20046;-77
2024/01/27 04:25:39;;;;;;;28.33;5.43;;;;;;;5.03;80.19;101508.47;4971349;28;20042;-76
2024/01/27 04:28:05;;;;;;;23.73;5.70;;;;;;;5.03;80.26;101511.94;4971872;28;20061;-78
2024/01/27 04:30:32;;;;;;;20.13;4.82;;;;;;;5.02;80.12;101507.63;4971790;28;20047;-77
2024/01/27 04:32:59;;;;;;;15.77;5.10;;;;;;;5.01;80.33;101503.25;4971357;28;20439;-76
2024/01/27 04:35:26;;;;;;;19.55;4.65;;;;;;;4.99;80.18;101505.00;4971391;28;20046;-78
2024/01/27 04:37:52;;;;;;;21.02;5.25;;;;;;;5.00;80.31;101506.75;4971701;28;20129;-77
2024/01/27 04:40:19;;;;;;;22.67;6.07;;;;;;;4.98;80.23;101505.91;4971795;28;20050;-77
2024/01/27 04:42:45;;;;;;;16.98;5.43;;;;;;;4.97;80.59;101504.13;4954455;28;20126;-76
2024/01/27 04:45:14;;;;;;;17.13;5.65;;;;;;;4.96;80.22;101510.25;4971251;28;20099;-76
2024/01/27 04:47:41;;;;;;;18.00;5.20;;;;;;;4.96;80.63;101512.84;4954429;28;20054;-77
2024/01/27 04:50:08;;;;;;;15.68;5.28;;;;;;;4.97;80.72;101516.34;4954513;28;20114;-76
2024/01/27 04:52:35;;;;;;;18.35;5.63;;;;;;;4.96;80.56;101518.06;4971678;28;20054;-76
2024/01/27 04:55:03;;;;;;;16.45;5.93;;;;;;;4.96;80.44;101515.47;4971166;28;20065;-77
2024/01/27 04:57:29;;;;;;;21.83;5.95;;;;;;;4.96;80.43;101518.06;4971336;28;20058;-79
2024/01/27 04:59:56;;;;;;;21.67;7.00;;;;;;;4.94;80.52;101512.84;4971469;28;20137;-77
2024/01/27 05:02:22;;;;;;;17.35;5.82;;;;;;;4.94;80.67;101522.44;4971570;28;20383;-77
2024/01/27 05:04:49;;;;;;;14.73;5.88;;;;;;;4.95;80.63;101516.34;4956208;28;20106;-77
2024/01/27 05:07:16;;;;;;;22.60;6.10;;;;;;;4.95;80.73;101521.56;4974560;28;20105;-80
2024/01/27 05:09:43;;;;;;;15.40;5.65;;;;;;;4.95;80.52;101513.72;4957951;28;20074;-76
2024/01/27 05:12:09;;;;;;;21.92;6.03;;;;;;;4.93;80.33;101516.34;4974796;28;20102;-77
2024/01/27 05:14:36;;;;;;;20.05;6.53;;;;;;;4.93;80.58;101516.34;4974609;28;20420;-76
2024/01/27 05:17:02;;;;;;;19.00;6.25;;;;;;;4.93;80.32;101511.13;4974210;28;20043;-77
2024/01/27 05:19:29;;;;;;;25.92;6.40;;;;;;;4.92;80.41;101511.13;4957144;28;20134;-77
2024/01/27 05:21:56;;;;;;;18.65;5.88;;;;;;;4.92;80.05;101513.75;4974743;28;20047;-77
2024/01/27 05:24:23;;;;;;;14.13;5.57;;;;;;;4.92;80.12;101513.75;4957161;28;20043;-76
2024/01/27 05:26:49;;;;;;;22.73;6.70;;;;;;;4.90;80.35;101505.06;4974294;28;20043;-78
2024/01/27 05:29:16;;;;;;;19.38;6.60;;;;;;;4.89;80.15;101513.75;4955081;29;20048;-77
2024/01/27 05:31:43;;;;;;;16.92;6.35;;;;;;;4.87;80.23;101521.59;4955356;29;20095;-76
2024/01/27 05:34:11;;;;;;;18.30;6.38;;;;;;;4.87;80.67;101510.28;5103187;23;20058;-74
2024/01/27 05:36:38;;;;;;;19.55;5.97;;;;;;;4.88;80.54;101514.63;4973956;28;20047;-75
2024/01/27 05:39:04;;;;;;;22.48;6.63;;;;;;;4.87;80.26;101515.50;4974668;28;20511;-74
2024/01/27 05:41:31;;;;;;;21.75;7.05;;;;;;;4.85;80.33;101507.69;4974293;28;20047;-74
2024/01/27 05:43:58;;;;;;;19.08;7.15;;;;;;;4.85;80.31;101517.28;4973610;28;20062;-74
2024/01/27 05:46:25;;;;;;;22.52;6.82;;;;;;;4.83;80.42;101514.66;4973987;28;20050;-76
2024/01/27 05:48:53;;;;;;;20.58;6.60;;;;;;;4.82;80.51;101510.31;4973475;28;20050;-76
2024/01/27 05:51:22;;;;;;;21.45;6.45;;;;;;;4.81;80.70;101516.41;4973909;28;20070;-76
2024/01/27 05:53:49;;;;;;;17.05;7.75;;;;;;;4.81;80.35;101525.09;4973571;28;20491;-73
2024/01/27 05:56:19;;;;;;;16.02;6.28;;;;;;;4.80;80.45;101520.78;4973622;28;20519;-73
2024/01/27 05:58:45;;;;;;;20.90;6.30;;;;;;;4.81;80.54;101516.41;4966727;28;20043;-75
2024/01/27 06:01:12;;;;;;;23.42;7.35;;;;;;;4.80;81.00;101525.09;4973851;28;20078;-75
2024/01/27 06:03:42;;;;;;;24.33;8.00;;;;;;;4.79;80.64;101523.38;4973671;28;20051;-75
2024/01/27 06:06:09;;;;;;;19.77;6.90;;;;;;;4.80;80.75;101531.22;4956456;28;20082;-77
2024/01/27 06:08:36;;;;;;;19.60;7.07;;;;;;;4.79;80.75;101532.06;4973106;28;20051;-77
2024/01/27 06:11:03;;;;;;;19.50;6.75;;;;;;;4.78;80.62;101543.38;4973774;28;20570;-75
2024/01/27 06:13:34;;;;;;;21.90;6.90;;;;;;;4.78;80.79;101548.59;4973268;28;20054;-77
2024/01/27 06:16:01;;;;;;;23.73;7.60;;;;;;;4.77;80.77;101546.88;4972892;28;20130;-75
2024/01/27 06:18:27;;;;;;;22.45;7.05;;;;;;;4.76;80.94;101563.41;4972874;28;20492;-76
2024/01/27 06:20:54;;;;;;;20.83;7.38;;;;;;;4.76;81.20;101557.31;4973455;28;20050;-76
2024/01/27 06:23:20;;;;;;;22.85;7.93;;;;;;;4.76;81.41;101559.91;4972914;28;20105;-76
2024/01/27 06:25:47;;;;;;;19.50;8.15;;;;;;;4.77;81.54;101546.88;4973302;28;20121;-75
2024/01/27 06:28:14;;;;;;;26.30;7.63;;;;;;;4.79;81.40;101552.94;4955806;28;20054;-75
2024/01/27 06:30:40;;;;;;;19.95;6.95;;;;;;;4.79;81.09;101554.69;4972863;28;20063;-75
2024/01/27 06:33:07;;;;;;;18.85;7.07;;;;;;;4.80;81.15;101556.41;4972754;28;20059;-76
2024/01/27 06:35:33;;;;;;;21.40;7.10;;;;;;;4.80;81.20;101561.63;4972720;28;20082;-76
2024/01/27 06:38:00;;;;;;;25.67;8.63;;;;;;;4.78;81.02;101559.03;4972334;28;20078;-77
2024/01/27 06:40:26;;;;;;;24.15;7.40;;;;;;;4.80;81.39;101559.91;4972877;28;20050;-76
2024/01/27 06:42:53;;;;;;;27.90;7.90;;;;;;;4.80;80.93;101570.34;4972540;28;20130;-74
2024/01/27 06:45:20;;;;;;;19.27;6.88;;;;;;;4.80;81.01;101567.72;4972939;28;20129;-76
2024/01/27 06:47:46;;;;;;;20.75;8.05;;;;;;;4.80;80.99;101575.56;4972808;28;20054;-76
2024/01/27 06:50:14;;;;;;;18.42;6.57;;;;;;;4.79;80.90;101575.56;4955032;28;20059;-76
2024/01/27 06:52:41;;;;;;;20.63;7.95;;;;;;;4.78;80.66;101582.50;4972674;28;20062;-75
2024/01/27 06:55:10;;;;;;;17.23;7.32;;;;;;;4.77;80.60;101579.91;4972615;28;20420;-76
2024/01/27 06:57:37;;;;;;;22.25;7.20;;;;;;;4.74;80.68;101578.16;4972489;28;20149;-77
2024/01/27 07:00:04;;;;;;;21.83;8.35;;;;;;;4.72;80.72;101590.38;4972592;28;20050;-74
2024/01/27 07:02:30;;;;;;;21.08;7.85;;;;;;;4.71;80.79;101586.00;4972541;28;20058;-76
2024/01/27 07:04:57;;;;;;;23.88;8.48;;;;;;;4.69;80.88;101577.31;4972395;28;20130;-78
2024/01/27 07:07:27;;;;;;;18.95;6.88;;;;;;;4.65;80.23;101581.69;4972748;28;20097;-75
2024/01/27 07:09:58;;;;;;;19.55;7.65;;;;;;;4.65;80.37;101583.41;4972160;28;20149;-76
2024/01/27 07:12:25;;;;;;;23.23;8.07;;;;;;;4.65;80.59;101593.84;4955363;28;20646;-78
2024/01/27 07:14:52;;;;;;;28.13;8.13;;;;;;;4.62;80.42;101580.81;4972199;28;20097;-77
2024/01/27 07:17:23;;;;;;;24.80;8.60;;;;;;;4.62;80.53;101588.63;4972419;28;20055;-77
2024/01/27 07:19:49;;;;;;;28.60;8.65;;;;;;;4.58;80.51;101590.41;4972067;28;20050;-76
2024/01/27 07:22:16;;;;;;;23.52;7.72;;;;;;;4.56;80.59;101594.72;4972241;28;20085;-77
2024/01/27 07:24:42;;;;;;;21.17;8.48;;;;;;;4.55;80.75;101593.88;4972103;28;20480;-78
2024/01/27 07:27:12;;;;;;;23.92;9.02;;;;;;;4.52;80.54;101593.88;4971487;28;20103;-75
2024/01/27 07:29:39;;;;;;;28.20;9.02;;;;;;;4.51;80.71;101601.69;4954559;28;20500;-75
2024/01/27 07:32:07;;;;;;;20.80;8.77;;;;;;;4.49;81.07;101593.88;4972090;28;20534;-76
2024/01/27 07:34:34;;;;;;;18.00;8.27;;;;;;;4.48;80.68;101583.47;4972055;28;20093;-77
2024/01/27 07:37:02;;;;;;;20.67;8.75;;;;;;;4.46;80.67;101593.91;4972116;28;20102;-77
2024/01/27 07:39:28;;;;;;;18.98;7.85;;;;;;;4.44;80.59;101585.19;4971917;28;20137;-77
2024/01/27 07:41:55;;;;;;;20.27;8.15;;;;;;;4.43;80.88;101602.59;4971666;28;20054;-75
2024/01/27 07:44:21;;;;;;;21.58;9.23;;;;;;;4.40;81.08;101599.09;4971707;28;20106;-75
2024/01/27 07:46:48;;;;;;;25.08;9.75;;;;;;;4.41;81.36;101604.31;4954937;28;20090;-78
2024/01/27 07:49:15;;;;;;;21.98;9.38;;;;;;;4.41;81.13;101606.94;4971197;28;20055;-77
2024/01/27 07:51:41;;;;;;;21.98;9.40;;;;;;;4.40;81.19;101600.00;4954407;28;20055;-74
2024/01/27 07:54:08;;;;;;;26.23;9.07;;;;;;;4.39;81.23;101606.09;4954650;28;20555;-74
2024/01/27 07:56:34;;;;;;;27.35;9.95;;;;;;;4.40;81.25;101606.94;4971853;28;20559;-76
2024/01/27 07:59:01;;;;;;;22.33;9.10;;;;;;;4.38;81.47;101612.16;4971884;28;20051;-76
2024/01/27 08:01:27;;;;;;;23.90;10.23;;;;;;;4.40;81.68;101612.16;4971570;28;20110;-76
2024/01/27 08:03:54;;;;;;;24.48;9.68;;;;;;;4.41;81.96;101609.53;4971597;28;20051;-76
2024/01/27 08:06:32;;;;;;;23.98;9.57;;;;;;;4.39;81.13;101610.41;4971849;28;20109;-76
2024/01/27 08:08:59;;;;;;;23.42;9.43;;;;;;;4.43;81.54;101613.03;4954796;28;20047;-76
2024/01/27 08:11:26;;;;;;;29.35;11.02;;;;;;;4.46;81.50;101619.09;4970738;28;20420;-77
2024/01/27 08:13:53;;;;;;;25.67;10.20;;;;;;;4.46;81.54;101604.34;4970395;28;20046;-75
2024/01/27 08:16:21;;;;;;;24.83;9.88;;;;;;;4.47;81.94;101611.28;4971420;28;20054;-77
2024/01/27 08:18:48;;;;;;;26.08;9.77;;;;;;;4.49;81.83;101600.84;4971682;28;20061;-76
2024/01/27 08:21:14;;;;;;;29.50;10.55;;;;;;;4.50;81.71;101608.69;4971195;28;20118;-76
2024/01/27 08:23:41;;;;;;;23.38;9.98;;;;;;;4.51;82.12;101610.41;4954201;28;20051;-78
2024/01/27 08:26:08;;;;;;;19.10;9.63;;;;;;;4.53;82.51;101621.69;4971206;28;20082;-76
2024/01/27 08:28:34;;;;;;;24.95;9.57;;;;;;;4.55;82.16;101619.97;4954608;28;20059;-77
2024/01/27 08:31:01;;;;;;;23.58;10.48;;;;;;;4.59;82.15;101635.63;4971207;28;20134;-75
2024/01/27 08:33:28;;;;;;;24.95;9.88;;;;;;;4.61;82.21;101634.75;4970665;28;20511;-76
2024/01/27 08:35:55;;;;;;;21.05;10.15;;;;;;;4.62;82.05;101627.75;4971216;28;20153;-76
2024/01/27 08:38:22;;;;;;;25.50;10.48;;;;;;;4.64;81.58;101624.28;4971367;28;20059;-77
2024/01/27 08:40:49;;;;;;;23.30;10.68;;;;;;;4.66;82.00;101621.66;4974876;28;20504;-75
2024/01/27 08:43:16;;;;;;;26.63;10.15;;;;;;;4.67;81.79;101634.72;4966684;28;20054;-77
2024/01/27 08:45:42;;;;;;;31.63;12.30;;;;;;;4.68;81.80;101636.44;4974575;28;20417;-78
2024/01/27 08:48:11;;;;;;;25.08;10.73;;;;;;;4.69;81.72;101652.97;4957990;28;20051;-77
2024/01/27 08:50:38;;;;;;;28.55;10.93;;;;;;;4.71;81.73;101639.94;4975115;28;20066;-78
2024/01/27 08:53:05;;;;;;;30.50;10.77;;;;;;;4.71;81.56;101655.59;4974616;28;20081;-76
2024/01/27 08:55:31;;;;;;;29.25;11.48;;;;;;;4.71;81.50;101651.22;4974968;28;20134;-76
2024/01/27 08:57:58;;;;;;;30.38;10.82;;;;;;;4.72;81.34;101652.09;4957375;28;20170;-76
2024/01/27 09:00:24;;;;;;;23.90;11.00;;;;;;;4.70;81.04;101654.72;4957368;28;20054;-75
2024/01/27 09:02:52;;;;;;;24.42;11.82;;;;;;;4.70;81.17;101659.94;4974704;28;20518;-76
2024/01/27 09:05:18;;;;;;;23.92;11.10;;;;;;;4.68;81.05;101657.31;4957693;28;20504;-76
2024/01/27 09:07:45;;;;;;;24.85;12.20;;;;;;;4.67;81.10;101660.81;4974807;28;20062;-76
2024/01/27 09:10:13;;;;;;;27.48;12.70;;;;;;;4.66;81.22;101663.41;4974207;28;20055;-76
2024/01/27 09:12:42;;;;;;;27.38;11.77;;;;;;;4.65;81.03;101656.47;4974738;28;20042;-76
2024/01/27 09:15:09;;;;;;;24.33;11.68;;;;;;;4.63;80.87;101650.41;4974463;28;20054;-77
2024/01/27 09:17:36;;;;;;;28.73;12.15;;;;;;;4.61;81.12;101665.16;4974774;28;20062;-76
2024/01/27 09:20:03;;;;;;;24.88;12.75;;;;;;;4.60;81.41;101669.50;4974135;28;20082;-78
2024/01/27 09:22:30;;;;;;;30.67;12.13;;;;;;;4.59;81.43;101675.59;4974459;28;20050;-76
2024/01/27 09:24:57;;;;;;;29.48;11.57;;;;;;;4.59;81.28;101685.16;4973724;28;20403;-76
2024/01/27 09:27:23;;;;;;;26.95;13.35;;;;;;;4.59;81.97;101678.19;4955660;28;20046;-77
2024/01/27 09:29:50;;;;;;;29.80;12.63;;;;;;;4.60;81.78;101685.16;4956804;28;20058;-78
2024/01/27 09:32:16;;;;;;;21.80;12.65;;;;;;;4.62;81.88;101687.75;4974176;28;20467;-76
2024/01/27 09:34:43;;;;;;;28.83;12.07;;;;;;;4.62;82.01;101696.47;4974211;28;20075;-76
2024/01/27 09:37:09;;;;;;;29.83;12.13;;;;;;;4.65;82.24;101692.97;4974014;28;20585;-76
2024/01/27 09:39:36;;;;;;;42.10;13.63;;;;;;;4.68;82.63;101698.19;4973591;28;20074;-76
2024/01/27 09:42:06;;;;;;;27.88;13.15;;;;;;;4.70;82.14;101704.28;4973801;28;20073;-76
2024/01/27 09:44:34;;;;;;;26.88;12.43;;;;;;;4.74;82.85;101711.22;4973695;28;20053;-76
2024/01/27 09:47:02;;;;;;;30.50;13.50;;;;;;;4.80;82.47;101710.34;4973709;28;20109;-77
2024/01/27 09:49:31;;;;;;;35.88;13.55;;;;;;;4.85;83.28;101706.00;4973315;28;20070;-77
2024/01/27 09:51:59;;;;;;;34.30;12.90;;;;;;;4.90;82.84;101714.69;4972639;28;20610;-76
2024/01/27 09:54:26;;;;;;;27.42;12.82;;;;;;;4.97;83.02;101714.69;4973693;28;20058;-78
2024/01/27 09:56:55;;;;;;;27.50;13.52;;;;;;;5.01;83.21;101717.28;4973848;28;20055;-76
2024/01/27 09:59:22;;;;;;;27.20;12.45;;;;;;;5.07;82.96;101717.28;4973754;28;20054;-76
2024/01/27 10:01:51;;;;;;;26.00;13.10;;;;;;;5.15;83.19;101711.16;4973121;28;20097;-76
2024/01/27 10:04:20;;;;;;;32.67;13.30;;;;;;;5.19;82.50;101712.88;4973234;28;20051;-78
2024/01/27 10:06:50;;;;;;;28.92;12.57;;;;;;;5.26;82.87;101709.38;4956352;28;20077;-78
2024/01/27 10:09:17;;;;;;;25.33;11.98;;;;;;;5.33;82.92;101710.22;4973406;28;20047;-78
2024/01/27 10:11:48;;;;;;;20.70;12.40;;;;;;;5.38;81.80;101715.44;4955659;28;20086;-76
2024/01/27 10:14:14;;;;;;;36.08;14.20;;;;;;;5.46;83.24;101706.69;4973250;28;20050;-76
2024/01/27 10:16:45;;;;;;;23.40;11.43;;;;;;;5.53;82.96;101717.13;4973314;28;20137;-76
2024/01/27 10:19:20;;;;;;;24.58;12.60;;;;;;;5.59;82.15;101714.47;4956373;28;20054;-76
2024/01/27 10:21:48;;;;;;;28.88;12.75;;;;;;;5.67;83.15;101717.06;4972932;28;20055;-77
2024/01/27 10:24:15;;;;;;;25.17;13.43;;;;;;;5.72;82.88;101704.84;4972873;28;20109;-76
2024/01/27 10:26:41;;;;;;;30.90;12.80;;;;;;;5.76;82.40;101701.34;4956083;28;20047;-75
2024/01/27 10:29:09;;;;;;;28.67;12.65;;;;;;;5.83;82.50;101710.03;4972965;28;20121;-77
2024/01/27 10:31:36;;;;;;;24.80;12.65;;;;;;;5.87;82.61;101702.13;4973170;28;20119;-76
2024/01/27 10:34:09;;;;;;;25.85;12.68;;;;;;;5.93;82.85;101705.59;4972560;28;20436;-76
2024/01/27 10:36:43;;;;;;;;;;;;;;;5.97;78.74;101705.56;4973627;28;20043;-76
2024/01/27 10:39:21;;;;;;;23.58;12.25;;;;;;;6.04;79.68;101701.22;4973115;28;19976;-75
2024/01/27 10:41:49;;;;;;;24.92;12.63;;;;;;;6.11;82.13;101691.56;4972546;28;20798;-76
2024/01/27 10:44:17;;;;;;;21.77;12.63;;;;;;;6.15;82.09;101695.91;4972452;28;20504;-74
2024/01/27 10:46:47;;;;;;;29.48;13.27;;;;;;;6.19;82.54;101689.78;4972967;28;20423;-77
2024/01/27 10:49:17;;;;;;;31.90;13.23;;;;;;;6.26;82.66;101682.75;4972951;28;20050;-76
2024/01/27 10:51:55;;;;;;;27.38;12.52;;;;;;;6.32;81.54;101681.84;4972397;28;20058;-78
2024/01/27 10:54:26;;;;;;;21.48;12.05;;;;;;;6.42;82.07;101683.47;4972572;28;20614;-76
2024/01/27 10:56:57;;;;;;;30.67;12.90;;;;;;;6.50;83.01;101686.91;4972512;28;20109;-75
2024/01/27 10:59:27;;;;;;;29.15;12.10;;;;;;;6.60;82.63;101692.94;4955622;28;20051;-75
2024/01/27 11:01:54;;;;;;;26.20;12.30;;;;;;;6.70;83.24;101685.00;4972306;28;20050;-75
2024/01/27 11:04:21;;;;;;;23.35;11.88;;;;;;;6.82;83.47;101686.63;4971791;28;20055;-75
2024/01/27 11:06:48;;;;;;;22.33;11.20;;;;;;;6.91;83.17;101692.63;4972466;28;20537;-76
2024/01/27 11:09:17;;;;;;;22.20;11.98;;;;;;;7.02;83.38;101678.53;4972570;28;20578;-77
2024/01/27 11:11:45;;;;;;;29.50;11.23;;;;;;;7.13;82.96;101683.66;4955129;28;20109;-76
2024/01/27 11:14:12;;;;;;;21.98;11.05;;;;;;;7.24;83.40;101691.41;4971542;28;20055;-76
2024/01/27 11:16:43;;;;;;;22.50;11.65;;;;;;;7.35;83.36;101706.97;4972509;28;20050;-77
2024/01/27 11:19:11;;;;;;;25.42;10.93;;;;;;;7.47;82.93;101698.97;4971850;28;20050;-78
2024/01/27 11:21:38;;;;;;;32.65;11.32;;;;;;;7.61;83.41;101700.56;4972028;28;20086;-77
2024/01/27 11:24:15;;;;;;;24.20;10.85;;;;;;;7.72;80.76;101703.91;4971142;28;20053;-76